createdAt,value
2023-05-30T00:01:52.615Z,61.00
2023-05-30T00:04:21.406Z,56.50
2023-05-30T00:06:49.242Z,59.75
2023-05-30T00:09:16.879Z,58.25
2023-05-30T00:11:44.462Z,62.25
2023-05-30T00:14:11.908Z,57.75
2023-05-30T00:16:40.176Z,62.25
2023-05-30T00:19:08.932Z,61.00
2023-05-30T00:21:36.786Z,66.75
2023-05-30T00:24:05.617Z,60.25
2023-05-30T00:26:33.491Z,62.50
2023-05-30T00:29:00.826Z,56.25
2023-05-30T00:31:30.724Z,57.75
2023-05-30T00:33:58.229Z,64.25
2023-05-30T00:36:25.268Z,63.25
2023-05-30T00:38:52.977Z,74.75
2023-05-30T00:41:20.089Z,61.25
2023-05-30T00:43:47.469Z,70.50
2023-05-30T00:46:16.293Z,64.50
2023-05-30T00:48:43.992Z,60.00
2023-05-30T00:51:13.049Z,69.00
2023-05-30T00:53:42.555Z,65.00
2023-05-30T00:56:09.659Z,66.75
2023-05-30T00:58:39.342Z,57.00
2023-05-30T01:01:07.393Z,55.00
2023-05-30T01:03:35.423Z,54.75
2023-05-30T01:06:04.644Z,54.00
2023-05-30T01:08:32.308Z,54.25
2023-05-30T01:11:08.613Z,26.25
2023-05-30T01:14:09.900Z,53.00
2023-05-30T01:16:45.547Z,49.25
2023-05-30T01:19:35.937Z,48.00
2023-05-30T01:22:27.637Z,52.25
2023-05-30T01:25:16.523Z,48.00
2023-05-30T01:28:03.316Z,45.75
2023-05-30T01:30:31.769Z,46.00
2023-05-30T01:32:59.096Z,47.00
2023-05-30T01:35:26.574Z,43.50
2023-05-30T01:37:53.576Z,43.75
2023-05-30T01:40:24.367Z,41.75
2023-05-30T01:43:03.177Z,42.50
2023-05-30T01:46:01.990Z,46.75
2023-05-30T01:48:39.818Z,44.50
2023-05-30T01:51:12.682Z,43.25
2023-05-30T01:53:44.451Z,42.00
2023-05-30T01:56:15.029Z,41.00
2023-05-30T01:58:42.329Z,40.75
2023-05-30T02:01:09.838Z,39.00
2023-05-30T02:03:37.049Z,42.00
2023-05-30T02:06:04.854Z,40.50
2023-05-30T02:08:32.068Z,38.50
2023-05-30T02:10:59.828Z,38.00
2023-05-30T02:13:27.259Z,43.50
2023-05-30T02:15:54.973Z,40.25
2023-05-30T02:18:22.072Z,39.00
2023-05-30T02:20:49.938Z,41.75
2023-05-30T02:23:17.283Z,41.00
2023-05-30T02:25:44.539Z,40.50
2023-05-30T02:28:11.883Z,40.75
2023-05-30T02:30:39.860Z,39.75
2023-05-30T02:33:07.251Z,39.00
2023-05-30T02:35:34.935Z,42.25
2023-05-30T02:38:02.064Z,42.25
2023-05-30T02:40:29.644Z,38.00
2023-05-30T02:42:58.123Z,41.75
2023-05-30T02:45:27.478Z,42.75
2023-05-30T02:47:54.598Z,42.00
2023-05-30T02:50:22.238Z,43.00
2023-05-30T02:52:49.455Z,42.50
2023-05-30T02:55:16.727Z,41.00
2023-05-30T02:57:44.043Z,44.25
2023-05-30T03:00:12.107Z,40.75
2023-05-30T03:02:39.160Z,42.75
2023-05-30T03:05:07.390Z,45.25
2023-05-30T03:07:36.831Z,40.25
2023-05-30T03:10:05.350Z,42.25
2023-05-30T03:12:32.498Z,39.00
2023-05-30T03:15:00.005Z,42.25
2023-05-30T03:17:27.203Z,41.75
2023-05-30T03:19:54.683Z,42.75
2023-05-30T03:22:21.854Z,40.25
2023-05-30T03:24:49.204Z,38.50
2023-05-30T03:27:16.438Z,41.75
2023-05-30T03:29:43.744Z,36.25
2023-05-30T03:32:11.063Z,39.00
2023-05-30T03:34:39.332Z,37.67
2023-05-30T03:37:06.623Z,38.00
2023-05-30T03:39:34.063Z,41.25
2023-05-30T03:42:02.925Z,38.00
2023-05-30T03:44:30.671Z,38.00
2023-05-30T03:46:57.948Z,41.00
2023-05-30T03:49:25.242Z,36.67
2023-05-30T03:51:53.250Z,37.33
2023-05-30T03:54:20.740Z,39.50
2023-05-30T03:56:47.717Z,43.25
2023-05-30T03:59:16.659Z,41.00
2023-05-30T04:01:43.636Z,35.33
2023-05-30T04:04:12.009Z,38.00
2023-05-30T04:06:39.395Z,37.33
2023-05-30T04:09:06.869Z,37.25
2023-05-30T04:11:34.037Z,41.00
2023-05-30T04:14:01.487Z,39.67
2023-05-30T04:16:28.597Z,40.00
2023-05-30T04:18:56.812Z,34.33
2023-05-30T04:21:23.974Z,33.33
2023-05-30T04:23:51.458Z,35.67
2023-05-30T04:26:18.942Z,35.00
2023-05-30T04:28:46.363Z,33.33
2023-05-30T04:31:21.830Z,31.00
2023-05-30T04:33:51.903Z,24.67
2023-05-30T04:36:21.916Z,28.33
2023-05-30T04:38:50.700Z,28.33
2023-05-30T04:41:21.953Z,31.33
2023-05-30T04:44:02.092Z,28.00
2023-05-30T04:46:30.328Z,28.33
2023-05-30T04:49:02.658Z,32.00
2023-05-30T04:51:30.770Z,30.00
2023-05-30T04:53:58.085Z,31.00
2023-05-30T04:56:25.430Z,31.33
2023-05-30T04:58:53.429Z,32.33
2023-05-30T05:01:22.564Z,31.67
2023-05-30T05:03:50.147Z,27.67
2023-05-30T05:06:17.503Z,28.33
2023-05-30T05:08:45.035Z,28.00
2023-05-30T05:11:12.106Z,25.67
2023-05-30T05:13:39.545Z,31.33
2023-05-30T05:16:07.563Z,26.00
2023-05-30T05:18:35.495Z,24.33
2023-05-30T05:21:03.274Z,26.33
2023-05-30T05:23:31.281Z,26.00
2023-05-30T05:26:28.118Z,27.00
2023-05-30T05:28:55.724Z,27.67
2023-05-30T05:31:22.818Z,24.33
2023-05-30T05:33:50.331Z,25.00
2023-05-30T05:36:17.933Z,23.67
2023-05-30T05:38:46.091Z,22.33
2023-05-30T05:41:13.667Z,27.33
2023-05-30T05:43:40.961Z,28.67
2023-05-30T05:46:08.023Z,26.00
2023-05-30T05:48:35.450Z,23.33
2023-05-30T05:51:02.559Z,25.00
2023-05-30T05:53:33.238Z,24.00
2023-05-30T05:56:01.868Z,23.67
2023-05-30T05:58:29.394Z,23.33
2023-05-30T06:00:56.485Z,26.33
2023-05-30T06:03:24.434Z,25.00
2023-05-30T06:05:51.653Z,20.67
2023-05-30T06:08:18.941Z,27.67
2023-05-30T06:10:46.357Z,25.33
2023-05-30T06:13:13.611Z,23.00
2023-05-30T06:15:40.647Z,24.33
2023-05-30T06:18:08.409Z,27.75
2023-05-30T06:20:35.424Z,22.67
2023-05-30T06:23:02.810Z,29.00
2023-05-30T06:25:31.800Z,25.50
2023-05-30T06:27:59.018Z,25.50
2023-05-30T06:30:26.169Z,24.75
2023-05-30T06:32:53.667Z,27.50
2023-05-30T06:35:20.730Z,26.75
2023-05-30T06:37:48.085Z,28.25
2023-05-30T06:40:15.518Z,25.00
2023-05-30T06:42:42.772Z,25.00
2023-05-30T06:45:10.426Z,23.00
2023-05-30T06:47:37.874Z,19.75
2023-05-30T06:50:05.350Z,23.75
2023-05-30T06:52:32.721Z,23.00
2023-05-30T06:55:00.190Z,20.50
2023-05-30T06:57:27.853Z,18.50
2023-05-30T06:59:55.027Z,22.00
2023-05-30T07:02:23.096Z,14.00
2023-05-30T07:04:50.360Z,21.50
2023-05-30T07:07:17.817Z,18.75
2023-05-30T07:09:45.136Z,17.25
2023-05-30T07:12:12.537Z,19.25
2023-05-30T07:14:39.499Z,20.50
2023-05-30T07:17:08.680Z,20.25
2023-05-30T07:19:36.202Z,10.25
2023-05-30T07:22:03.483Z,17.50
2023-05-30T07:24:30.954Z,13.50
2023-05-30T07:26:58.491Z,17.75
2023-05-30T07:29:25.805Z,18.50
2023-05-30T07:31:53.616Z,14.75
2023-05-30T07:34:20.768Z,16.50
2023-05-30T07:36:48.233Z,17.75
2023-05-30T07:39:15.388Z,14.50
2023-05-30T07:41:42.853Z,18.25
2023-05-30T07:44:09.830Z,16.00
2023-05-30T07:46:37.198Z,15.00
2023-05-30T07:49:04.296Z,16.25
2023-05-30T07:51:32.702Z,12.50
2023-05-30T07:53:59.714Z,14.00
2023-05-30T07:56:27.413Z,12.25
2023-05-30T07:58:54.432Z,12.00
2023-05-30T08:01:22.314Z,13.25
2023-05-30T08:03:49.548Z,17.25
2023-05-30T08:06:18.013Z,16.75
2023-05-30T08:08:45.026Z,15.50
2023-05-30T08:11:12.933Z,13.00
2023-05-30T08:13:39.980Z,12.25
2023-05-30T08:16:11.011Z,11.50
2023-05-30T08:18:39.116Z,15.00
2023-05-30T08:21:06.656Z,16.50
2023-05-30T08:23:33.884Z,11.75
2023-05-30T08:26:02.529Z,12.50
2023-05-30T08:28:29.744Z,11.50
2023-05-30T08:30:57.512Z,14.00
2023-05-30T08:33:25.633Z,13.25
2023-05-30T08:35:53.017Z,12.25
2023-05-30T08:38:20.931Z,11.75
2023-05-30T08:40:48.334Z,9.00
2023-05-30T08:43:15.578Z,15.25
2023-05-30T08:45:43.202Z,13.50
2023-05-30T08:48:11.520Z,15.25
2023-05-30T08:50:39.861Z,12.50
2023-05-30T08:53:13.330Z,11.75
2023-05-30T08:55:44.218Z,13.50
2023-05-30T08:58:20.499Z,12.75
2023-05-30T09:00:50.241Z,10.75
2023-05-30T09:03:18.304Z,14.00
2023-05-30T09:05:46.665Z,5.50
2023-05-30T09:08:15.052Z,10.50
2023-05-30T09:10:53.304Z,11.25
2023-05-30T09:13:21.708Z,10.75
2023-05-30T09:15:49.373Z,11.50
2023-05-30T09:18:17.879Z,10.00
2023-05-30T09:20:45.256Z,10.00
2023-05-30T09:23:12.600Z,9.50
2023-05-30T09:25:48.050Z,9.50
2023-05-30T09:28:24.827Z,8.75
2023-05-30T09:31:03.275Z,12.00
2023-05-30T09:33:50.726Z,9.25
2023-05-30T09:36:23.414Z,9.00
2023-05-30T09:38:57.911Z,8.75
2023-05-30T09:41:27.423Z,7.50
2023-05-30T09:43:58.192Z,9.00
2023-05-30T09:46:32.419Z,8.25
2023-05-30T09:49:00.246Z,11.75
2023-05-30T09:51:28.042Z,9.00
2023-05-30T09:54:02.814Z,6.75
2023-05-30T09:56:31.836Z,7.50
2023-05-30T09:59:00.112Z,3.75
2023-05-30T10:01:36.328Z,10.00
2023-05-30T10:04:11.785Z,5.00
2023-05-30T10:06:50.464Z,10.00
2023-05-30T10:09:17.636Z,9.00
2023-05-30T10:11:45.407Z,11.25
2023-05-30T10:14:13.414Z,7.50
2023-05-30T10:17:02.169Z,9.50
2023-05-30T10:19:42.012Z,10.50
2023-05-30T10:22:10.490Z,8.75
2023-05-30T10:24:37.628Z,9.00
2023-05-30T10:27:05.355Z,8.50
2023-05-30T10:29:48.101Z,9.25
2023-05-30T10:32:21.130Z,12.50
2023-05-30T10:34:56.318Z,11.25
2023-05-30T10:37:24.836Z,9.50
2023-05-30T10:40:10.201Z,8.50
2023-05-30T10:42:58.914Z,11.00
2023-05-30T10:45:54.549Z,8.75
2023-05-30T10:48:49.380Z,7.00
2023-05-30T10:51:16.691Z,9.50
2023-05-30T10:53:46.191Z,9.00
2023-05-30T10:56:39.302Z,10.50
2023-05-30T10:59:14.940Z,8.75
2023-05-30T11:01:42.756Z,6.00
2023-05-30T11:04:13.094Z,9.00
2023-05-30T11:06:40.093Z,10.50
2023-05-30T11:09:18.511Z,9.75
2023-05-30T11:11:56.724Z,9.00
2023-05-30T11:14:35.051Z,11.75
2023-05-30T11:17:07.197Z,9.25
2023-05-30T11:19:39.968Z,10.00
2023-05-30T11:22:11.820Z,8.25
2023-05-30T11:24:39.387Z,8.00
2023-05-30T11:27:09.287Z,9.25
2023-05-30T11:29:56.005Z,9.75
2023-05-30T11:32:25.017Z,6.75
2023-05-30T11:35:05.123Z,10.50
2023-05-30T11:37:34.639Z,11.75
2023-05-30T11:40:02.560Z,7.25
2023-05-30T11:42:31.317Z,12.00
2023-05-30T11:44:58.853Z,9.25
2023-05-30T11:47:44.813Z,8.00
2023-05-30T11:50:13.724Z,10.25
2023-05-30T11:52:41.613Z,6.00
2023-05-30T11:55:10.063Z,9.75
2023-05-30T11:57:37.348Z,8.00
2023-05-30T12:00:09.657Z,9.25
2023-05-30T12:02:37.200Z,9.75
2023-05-30T12:05:05.560Z,10.25
2023-05-30T12:07:33.634Z,8.00
2023-05-30T12:10:01.807Z,11.25
2023-05-30T12:12:29.110Z,9.75
2023-05-30T12:14:57.759Z,9.50
2023-05-30T12:17:27.034Z,9.50
2023-05-30T12:19:59.984Z,9.00
2023-05-30T12:22:32.051Z,8.75
2023-05-30T12:24:59.694Z,9.75
2023-05-30T12:27:28.220Z,8.00
2023-05-30T12:29:55.979Z,10.75
2023-05-30T12:32:25.091Z,8.75
2023-05-30T12:34:55.141Z,9.50
2023-05-30T12:37:22.197Z,7.50
2023-05-30T12:39:54.463Z,9.25
2023-05-30T12:42:26.127Z,7.00
2023-05-30T12:44:55.145Z,7.75
2023-05-30T12:47:23.076Z,8.50
2023-05-30T12:49:51.291Z,8.00
2023-05-30T12:52:22.911Z,10.50
2023-05-30T12:54:51.203Z,9.00
2023-05-30T12:57:20.378Z,7.75
2023-05-30T12:59:48.147Z,7.25
2023-05-30T13:02:15.375Z,13.25
2023-05-30T13:04:43.742Z,10.75
2023-05-30T13:07:11.185Z,6.75
2023-05-30T13:09:39.265Z,10.75
2023-05-30T13:12:10.493Z,9.00
2023-05-30T13:14:43.437Z,8.50
2023-05-30T13:17:10.879Z,8.50
2023-05-30T13:19:38.776Z,10.00
2023-05-30T13:22:07.754Z,9.00
2023-05-30T13:24:35.397Z,8.25
2023-05-30T13:27:02.433Z,12.50
2023-05-30T13:29:29.815Z,6.00
2023-05-30T13:31:57.014Z,10.75
2023-05-30T13:34:25.090Z,8.50
2023-05-30T13:36:52.418Z,10.00
2023-05-30T13:39:20.193Z,11.00
2023-05-30T13:41:47.412Z,6.00
2023-05-30T13:44:15.241Z,9.50
2023-05-30T13:46:42.546Z,6.00
2023-05-30T13:49:10.101Z,8.75
2023-05-30T13:51:37.924Z,9.75
2023-05-30T13:54:06.583Z,7.50
2023-05-30T13:56:34.150Z,9.25
2023-05-30T13:59:01.966Z,8.75
2023-05-30T14:01:31.374Z,10.00
2023-05-30T14:03:59.314Z,11.75
2023-05-30T14:06:26.998Z,11.50
2023-05-30T14:08:54.711Z,11.00
2023-05-30T14:11:22.601Z,9.00
2023-05-30T14:13:50.329Z,10.75
2023-05-30T14:16:18.245Z,10.75
2023-05-30T14:18:48.900Z,9.50
2023-05-30T14:21:16.782Z,8.50
2023-05-30T14:23:44.331Z,9.00
2023-05-30T14:26:11.675Z,9.25
2023-05-30T14:28:40.636Z,6.00
2023-05-30T14:31:10.289Z,10.50
2023-05-30T14:33:37.555Z,9.75
2023-05-30T14:36:05.471Z,7.75
2023-05-30T14:38:33.482Z,10.00
2023-05-30T14:41:01.061Z,9.25
2023-05-30T14:43:28.523Z,7.75
2023-05-30T14:45:57.002Z,8.00
2023-05-30T14:48:24.147Z,10.00
2023-05-30T14:50:51.581Z,9.00
2023-05-30T14:53:18.942Z,12.00
2023-05-30T14:55:46.441Z,9.75
2023-05-30T14:58:13.552Z,10.50
2023-05-30T15:00:41.403Z,9.00
2023-05-30T15:03:08.803Z,10.50
2023-05-30T15:05:36.457Z,10.50
2023-05-30T15:08:03.775Z,10.00
2023-05-30T15:10:31.313Z,9.00
2023-05-30T15:12:58.615Z,12.00
2023-05-30T15:15:26.402Z,8.25
2023-05-30T15:17:53.724Z,8.75
2023-05-30T15:20:22.536Z,10.25
2023-05-30T15:22:49.781Z,5.00
2023-05-30T15:25:17.578Z,9.50
2023-05-30T15:27:44.826Z,9.25
2023-05-30T15:30:12.493Z,13.50
2023-05-30T15:32:39.689Z,10.75
2023-05-30T15:35:07.453Z,6.50
2023-05-30T15:37:36.023Z,12.00
2023-05-30T15:40:06.264Z,7.75
2023-05-30T15:42:33.922Z,6.25
2023-05-30T15:45:01.639Z,9.75
2023-05-30T15:47:29.011Z,7.75
2023-05-30T15:49:56.902Z,8.25
2023-05-30T15:52:24.430Z,13.75
2023-05-30T15:54:52.575Z,12.00
2023-05-30T15:57:20.024Z,9.25
2023-05-30T15:59:47.626Z,10.00
2023-05-30T16:02:14.857Z,11.25
2023-05-30T16:04:42.630Z,9.75
2023-05-30T16:07:09.940Z,10.25
2023-05-30T16:09:39.752Z,12.00
2023-05-30T16:12:10.028Z,11.00
2023-05-30T16:14:38.101Z,9.50
2023-05-30T16:17:06.220Z,10.75
2023-05-30T16:19:34.204Z,10.00
2023-05-30T16:22:01.543Z,12.50
2023-05-30T16:24:29.218Z,11.00
2023-05-30T16:26:56.289Z,9.00
2023-05-30T16:29:23.893Z,4.00
2023-05-30T16:31:51.186Z,8.50
2023-05-30T16:34:18.964Z,11.00
2023-05-30T16:36:47.262Z,12.25
2023-05-30T16:39:15.066Z,7.50
2023-05-30T16:41:42.287Z,9.00
2023-05-30T16:44:09.719Z,9.00
2023-05-30T16:46:40.436Z,9.25
2023-05-30T16:49:08.270Z,8.50
2023-05-30T16:51:36.574Z,7.00
2023-05-30T16:54:04.730Z,8.50
2023-05-30T16:56:31.716Z,7.75
2023-05-30T16:59:00.573Z,6.50
2023-05-30T17:01:52.786Z,1.00
2023-05-30T17:04:20.278Z,4.75
2023-05-30T17:06:55.467Z,6.75
2023-05-30T17:09:22.824Z,6.75
2023-05-30T17:11:49.898Z,6.00
2023-05-30T17:14:17.408Z,7.50
2023-05-30T17:16:44.604Z,7.25
2023-05-30T17:19:28.089Z,6.75
2023-05-30T17:21:56.574Z,6.25
2023-05-30T17:24:24.093Z,6.25
2023-05-30T17:26:51.386Z,8.75
2023-05-30T17:29:20.367Z,10.75
2023-05-30T17:31:47.651Z,9.00
2023-05-30T17:34:15.059Z,10.00
2023-05-30T17:36:42.291Z,8.75
2023-05-30T17:39:12.074Z,10.75
2023-05-30T17:41:39.754Z,9.50
2023-05-30T17:44:07.520Z,9.25
2023-05-30T17:46:35.100Z,11.00
2023-05-30T17:49:02.682Z,9.25
2023-05-30T17:51:30.082Z,7.75
2023-05-30T17:53:57.768Z,8.00
2023-05-30T17:56:25.220Z,8.25
2023-05-30T17:58:53.169Z,11.00
2023-05-30T18:01:21.025Z,5.75
2023-05-30T18:03:48.694Z,5.00
2023-05-30T18:06:26.484Z,7.00
2023-05-30T18:08:55.630Z,7.25
2023-05-30T18:11:23.271Z,9.50
2023-05-30T18:13:51.835Z,8.75
2023-05-30T18:16:19.355Z,6.25
2023-05-30T18:18:47.516Z,7.75
2023-05-30T18:21:14.843Z,6.75
2023-05-30T18:23:42.390Z,4.50
2023-05-30T18:26:11.183Z,4.50
2023-05-30T18:28:38.629Z,3.75
2023-05-30T18:31:05.710Z,6.00
2023-05-30T18:33:33.566Z,5.00
2023-05-30T18:36:13.021Z,5.00
2023-05-30T18:38:41.584Z,5.50
2023-05-30T18:41:09.087Z,4.75
2023-05-30T18:43:36.468Z,5.00
2023-05-30T18:46:04.038Z,8.50
2023-05-30T18:48:44.274Z,11.75
2023-05-30T18:51:13.912Z,8.75
2023-05-30T18:53:41.466Z,6.50
2023-05-30T18:56:09.689Z,5.00
2023-05-30T18:58:37.767Z,6.75
2023-05-30T19:01:05.426Z,7.25
2023-05-30T19:03:33.082Z,7.00
2023-05-30T19:06:00.634Z,7.25
2023-05-30T19:08:29.306Z,11.00
2023-05-30T19:10:56.898Z,9.25
2023-05-30T19:13:24.505Z,10.00
2023-05-30T19:15:51.910Z,8.33
2023-05-30T19:18:19.594Z,9.33
2023-05-30T19:20:49.160Z,8.67
2023-05-30T19:23:18.856Z,9.67
2023-05-30T19:25:46.139Z,8.00
2023-05-30T19:28:14.571Z,4.33
2023-05-30T19:30:42.052Z,7.67
2023-05-30T19:33:09.598Z,5.00
2023-05-30T19:35:37.314Z,6.67
2023-05-30T19:38:04.930Z,10.33
2023-05-30T19:40:32.666Z,6.67
2023-05-30T19:43:00.543Z,5.00
2023-05-30T19:45:28.464Z,8.00
2023-05-30T19:47:56.149Z,8.33
2023-05-30T19:50:23.564Z,7.00
2023-05-30T19:52:50.992Z,7.33
2023-05-30T19:55:18.265Z,8.67
2023-05-30T19:57:45.706Z,11.33
2023-05-30T20:00:13.936Z,7.00
2023-05-30T20:02:41.649Z,6.00
2023-05-30T20:05:10.358Z,5.33
2023-05-30T20:07:38.724Z,8.00
2023-05-30T20:10:06.853Z,5.33
2023-05-30T20:12:34.526Z,7.00
2023-05-30T20:15:03.795Z,7.67
2023-05-30T20:17:34.301Z,6.67
2023-05-30T20:20:01.757Z,8.00
2023-05-30T20:22:29.392Z,7.67
2023-05-30T20:24:57.075Z,8.00
2023-05-30T20:27:24.952Z,4.33
2023-05-30T20:29:52.377Z,6.67
2023-05-30T20:32:21.864Z,5.67
2023-05-30T20:34:51.955Z,7.33
2023-05-30T20:37:20.098Z,5.00
2023-05-30T20:39:49.124Z,7.00
2023-05-30T20:42:21.357Z,7.00
2023-05-30T20:44:48.702Z,6.00
2023-05-30T20:47:17.480Z,5.33
2023-05-30T20:49:47.866Z,7.33
2023-05-30T20:52:17.196Z,9.00
2023-05-30T20:54:45.026Z,6.00
2023-05-30T20:57:17.769Z,8.67
2023-05-30T20:59:46.184Z,6.67
2023-05-30T21:02:14.674Z,6.67
2023-05-30T21:04:43.992Z,8.00
2023-05-30T21:07:12.397Z,7.00
2023-05-30T21:09:40.018Z,9.33
2023-05-30T21:12:08.957Z,6.67
2023-05-30T21:14:36.358Z,7.33
2023-05-30T21:17:04.379Z,8.00
2023-05-30T21:19:31.707Z,7.00
2023-05-30T21:21:59.621Z,4.33
2023-05-30T21:24:27.117Z,6.33
2023-05-30T21:26:54.952Z,9.33
2023-05-30T21:29:22.213Z,6.00
2023-05-30T21:31:49.803Z,8.33
2023-05-30T21:34:17.205Z,9.00
2023-05-30T21:36:44.657Z,9.67
2023-05-30T21:39:11.757Z,8.00
2023-05-30T21:41:39.725Z,10.00
2023-05-30T21:44:06.857Z,10.00
2023-05-30T21:46:35.859Z,12.00
2023-05-30T21:49:03.428Z,5.00
2023-05-30T21:51:31.425Z,15.00
2023-05-30T21:54:03.187Z,9.33
2023-05-30T21:56:31.548Z,13.33
2023-05-30T21:58:59.779Z,9.00
2023-05-30T22:01:27.401Z,11.67
2023-05-30T22:03:54.728Z,12.67
2023-05-30T22:06:25.966Z,9.33
2023-05-30T22:08:54.428Z,17.00
2023-05-30T22:11:23.815Z,9.33
2023-05-30T22:13:51.377Z,15.00
2023-05-30T22:16:19.020Z,14.67
2023-05-30T22:18:46.294Z,10.00
2023-05-30T22:21:13.800Z,10.00
2023-05-30T22:23:40.933Z,12.00
2023-05-30T22:26:08.650Z,13.33
2023-05-30T22:28:35.732Z,10.33
2023-05-30T22:31:04.175Z,14.00
2023-05-30T22:33:31.458Z,14.33
2023-05-30T22:35:59.022Z,11.67
2023-05-30T22:38:27.810Z,12.00
2023-05-30T22:40:55.354Z,17.00
2023-05-30T22:43:22.408Z,14.33
2023-05-30T22:45:49.870Z,13.67
2023-05-30T22:48:17.064Z,13.67
2023-05-30T22:50:44.810Z,12.00
2023-05-30T22:53:11.945Z,18.00
2023-05-30T22:55:39.704Z,15.67
2023-05-30T22:58:06.695Z,17.00
2023-05-30T23:00:34.003Z,16.67
2023-05-30T23:03:01.514Z,15.67
2023-05-30T23:05:32.927Z,19.67
2023-05-30T23:08:00.085Z,17.00
2023-05-30T23:10:27.498Z,19.67
2023-05-30T23:12:54.463Z,13.67
2023-05-30T23:15:21.719Z,17.33
2023-05-30T23:17:49.183Z,16.00
2023-05-30T23:20:16.816Z,17.33
2023-05-30T23:22:45.127Z,12.00
2023-05-30T23:25:12.608Z,15.33
2023-05-30T23:27:39.659Z,17.00
2023-05-30T23:30:07.962Z,17.67
2023-05-30T23:32:35.312Z,13.33
2023-05-30T23:35:02.693Z,13.67
2023-05-30T23:37:29.667Z,12.33
2023-05-30T23:39:57.662Z,15.33
2023-05-30T23:42:24.717Z,14.33
2023-05-30T23:44:52.111Z,14.33
2023-05-30T23:47:19.353Z,15.33
2023-05-30T23:49:46.681Z,14.67
2023-05-30T23:52:13.631Z,20.00
2023-05-30T23:54:40.951Z,21.33
2023-05-30T23:57:09.111Z,21.50
2023-05-30T23:59:36.392Z,12.00
